VCBI/CMB METAR and TAF weather

Enter ICAO airport designator
Station Type Date Time Source
VCBI METAR 2020/07/11 01:10 UTC NOAA

VCBI 110110Z 13004KT 9999 SCT018 FEW020TCU 27/26 Q1008 NOSIG


Station Type Date Time Source
VCBI Decoded METAR 2020/07/11 01:10 UTC NOAA

Katunayake, Sri Lanka (VCBI) 07-10N 079-53E 8M
Jul 10, 2020 - 09:10 PM EDT / 2020.07.11 0110 UTC
Wind: from the SE (130 degrees) at 5 MPH (4 KT):0
Visibility: greater than 7 mile(s):0
Sky conditions: partly cloudy
Weather: Towering cumulus clouds observed
Temperature: 80 F (27 C)
Dew Point: 78 F (26 C)
Relative Humidity: 94%
Pressure (altimeter): 29.77 in. Hg (1008 hPa)
ob: VCBI 110110Z 13004KT 9999 SCT018 FEW020TCU 27/26 Q1008 NOSIG
cycle: 1

Station Type Date Time Source
VCBI TAF 2020/07/10 18:06 UTC NOAA

TAF TAF VCBI 101700Z 1018/1124 23008KT 9999 SCT018 TX31/1107Z TN26/1100Z PROB30
TEMPO 1022/1103 6000 -TSRA/SHRA FEW012 BKN016 FEW020CB

Example: see airport list